Time;durP1;ratioP1;P1;durP2;ratioP2;P2;SDS_P1;SDS_P2;PMS_P1;PMS_P2;Temp;Humidity;BMP_temperature;BMP_pressure;BME280_temperature;BME280_humidity;BME280_pressure;Samples;Min_cycle;Max_cycle;Signal;HPM_P1;HPM_P2
2021/07/22 00:02:11;;;;;;;9.80;8.80;;;;;;;;;;5033101;28;20502;-59
2021/07/22 00:04:38;;;;;;;15.60;10.00;;;;;;;;;;5033351;28;20445;-59
2021/07/22 00:07:05;;;;;;;14.30;10.80;;;;;;;;;;5033081;28;21049;-59
2021/07/22 00:09:34;;;;;;;12.13;9.67;;;;;;;;;;5033466;28;20495;-58
2021/07/22 00:12:01;;;;;;;10.83;9.70;;;;;;;;;;5033317;28;20441;-59
2021/07/22 00:14:29;;;;;;;11.57;9.43;;;;;;;;;;5033205;28;20477;-59
2021/07/22 00:16:56;;;;;;;13.37;9.17;;;;;;;;;;5033197;28;20471;-59
2021/07/22 00:19:24;;;;;;;11.10;9.30;;;;;;;;;;5032931;28;20456;-59
2021/07/22 00:21:51;;;;;;;11.03;9.30;;;;;;;;;;5032903;28;20449;-59
2021/07/22 00:24:18;;;;;;;11.17;8.97;;;;;;;;;;5035689;28;20514;-59
2021/07/22 00:26:47;;;;;;;10.53;9.53;;;;;;;;;;5038093;28;20523;-59
2021/07/22 00:29:14;;;;;;;10.90;9.47;;;;;;;;;;5036967;28;20506;-59
2021/07/22 00:31:41;;;;;;;11.17;9.37;;;;;;;;;;5037216;28;20449;-59
2021/07/22 00:34:09;;;;;;;11.23;9.13;;;;;;;;;;5036797;28;20526;-59
2021/07/22 00:36:36;;;;;;;14.70;9.50;;;;;;;;;;5036755;28;20480;-59
2021/07/22 00:39:03;;;;;;;11.47;9.77;;;;;;;;;;5036843;28;21002;-58
2021/07/22 00:41:30;;;;;;;11.13;9.87;;;;;;;;;;5037140;28;20448;-59
2021/07/22 00:44:01;;;;;;;12.13;9.50;;;;;;;;;;5036998;28;20449;-59
2021/07/22 00:46:28;;;;;;;13.30;9.80;;;;;;;;;;5037008;28;20560;-59
2021/07/22 00:48:55;;;;;;;9.93;8.90;;;;;;;;;;5036901;28;20449;-59
2021/07/22 00:51:23;;;;;;;12.50;10.10;;;;;;;;;;5036527;28;20514;-59
2021/07/22 00:53:50;;;;;;;13.80;9.30;;;;;;;;;;5036776;28;20534;-59
2021/07/22 00:56:17;;;;;;;13.20;10.10;;;;;;;;;;5036647;28;20873;-59
2021/07/22 00:58:44;;;;;;;10.73;9.27;;;;;;;;;;5036718;28;20444;-59
2021/07/22 01:01:13;;;;;;;11.93;9.60;;;;;;;;;;5036679;28;20522;-59
2021/07/22 01:03:40;;;;;;;10.30;9.20;;;;;;;;;;5036305;28;20540;-58
2021/07/22 01:06:08;;;;;;;11.80;9.50;;;;;;;;;;5036528;28;20529;-59
2021/07/22 01:08:35;;;;;;;12.40;9.10;;;;;;;;;;5036484;28;20476;-59
2021/07/22 01:11:02;;;;;;;13.93;10.30;;;;;;;;;;5036144;28;20812;-59
2021/07/22 01:13:29;;;;;;;11.30;10.10;;;;;;;;;;5036032;28;20477;-59
2021/07/22 01:15:57;;;;;;;11.20;9.97;;;;;;;;;;5036262;28;20515;-59
2021/07/22 01:18:25;;;;;;;12.00;10.13;;;;;;;;;;5036299;28;20453;-59
2021/07/22 01:20:54;;;;;;;11.23;10.03;;;;;;;;;;5036217;28;20503;-59
2021/07/22 01:23:21;;;;;;;10.17;9.10;;;;;;;;;;5036475;28;20437;-59
2021/07/22 01:25:50;;;;;;;12.17;9.60;;;;;;;;;;5036001;28;20472;-59
2021/07/22 01:28:17;;;;;;;14.17;9.40;;;;;;;;;;5036112;28;20979;-59
2021/07/22 01:30:45;;;;;;;10.37;9.17;;;;;;;;;;5036266;28;20499;-59
2021/07/22 01:33:12;;;;;;;11.00;9.43;;;;;;;;;;5036564;28;20524;-59
2021/07/22 01:38:07;;;;;;;10.70;9.60;;;;;;;;;;5053043;22;20548;-58
2021/07/22 01:40:34;;;;;;;12.23;9.80;;;;;;;;;;5035942;28;20593;-58
2021/07/22 01:43:05;;;;;;;10.97;9.50;;;;;;;;;;5036037;28;20444;-57
2021/07/22 01:45:32;;;;;;;11.53;9.67;;;;;;;;;;5035978;28;20500;-57
2021/07/22 01:47:59;;;;;;;11.63;9.23;;;;;;;;;;5035971;28;20465;-57
2021/07/22 01:50:27;;;;;;;11.80;10.17;;;;;;;;;;5035992;28;20886;-57
2021/07/22 01:52:54;;;;;;;11.17;9.10;;;;;;;;;;5035541;28;20445;-57
2021/07/22 01:55:23;;;;;;;11.30;9.13;;;;;;;;;;5036303;28;20453;-56
2021/07/22 01:57:50;;;;;;;12.70;10.17;;;;;;;;;;5035551;28;20473;-57
2021/07/22 02:00:18;;;;;;;11.63;10.40;;;;;;;;;;5035189;28;20552;-58
2021/07/22 02:02:45;;;;;;;13.77;9.30;;;;;;;;;;5035455;28;20522;-58
2021/07/22 02:05:13;;;;;;;11.20;10.10;;;;;;;;;;5035100;28;20953;-58
2021/07/22 02:07:40;;;;;;;13.17;11.00;;;;;;;;;;5034958;28;20473;-56
2021/07/22 02:10:08;;;;;;;13.80;10.90;;;;;;;;;;5035312;28;20449;-56
2021/07/22 02:12:36;;;;;;;15.07;11.10;;;;;;;;;;5035208;28;20507;-57
2021/07/22 02:15:04;;;;;;;14.87;11.60;;;;;;;;;;5034862;28;20481;-57
2021/07/22 02:17:31;;;;;;;16.73;11.13;;;;;;;;;;5034791;28;20469;-57
2021/07/22 02:19:58;;;;;;;13.40;10.43;;;;;;;;;;5035110;28;20445;-57
2021/07/22 02:22:25;;;;;;;12.37;10.43;;;;;;;;;;5034778;28;21015;-57
2021/07/22 02:24:53;;;;;;;12.20;10.27;;;;;;;;;;5035038;28;20440;-57
2021/07/22 02:27:20;;;;;;;12.53;11.10;;;;;;;;;;5034577;28;20883;-57
2021/07/22 02:29:49;;;;;;;14.03;10.50;;;;;;;;;;5034954;28;20441;-57
2021/07/22 02:32:16;;;;;;;12.43;11.13;;;;;;;;;;5034526;28;20537;-56
2021/07/22 02:34:43;;;;;;;12.07;10.70;;;;;;;;;;5034627;28;20539;-57
2021/07/22 02:37:10;;;;;;;14.10;10.87;;;;;;;;;;5034536;28;20480;-57
2021/07/22 02:39:38;;;;;;;12.93;10.67;;;;;;;;;;5034750;28;20796;-57
2021/07/22 02:42:06;;;;;;;13.30;10.87;;;;;;;;;;5034668;28;20864;-56
2021/07/22 02:44:38;;;;;;;16.27;11.80;;;;;;;;;;5034629;28;20548;-56
2021/07/22 02:47:08;;;;;;;13.03;10.97;;;;;;;;;;5033283;28;21072;-56
2021/07/22 02:49:35;;;;;;;14.10;11.50;;;;;;;;;;5034519;28;20452;-56
2021/07/22 02:52:03;;;;;;;15.60;12.10;;;;;;;;;;5034204;28;20499;-56
2021/07/22 02:54:30;;;;;;;13.30;10.87;;;;;;;;;;5034333;28;20485;-57
2021/07/22 02:56:57;;;;;;;17.97;11.40;;;;;;;;;;5034402;28;20518;-56
2021/07/22 02:59:24;;;;;;;14.37;12.10;;;;;;;;;;5034189;28;20444;-58
2021/07/22 03:01:51;;;;;;;13.40;11.43;;;;;;;;;;5034269;28;20486;-57
2021/07/22 03:04:20;;;;;;;19.20;12.50;;;;;;;;;;5034037;28;20515;-58
2021/07/22 03:06:48;;;;;;;13.47;12.07;;;;;;;;;;5034152;28;20465;-58
2021/07/22 03:09:15;;;;;;;16.00;12.03;;;;;;;;;;5034259;28;20449;-58
2021/07/22 03:11:43;;;;;;;14.17;12.70;;;;;;;;;;5034081;28;20517;-58
2021/07/22 03:14:10;;;;;;;14.17;12.30;;;;;;;;;;5033721;28;20536;-58
2021/07/22 03:16:37;;;;;;;18.47;13.73;;;;;;;;;;5034425;28;20465;-58
2021/07/22 03:19:04;;;;;;;14.40;12.90;;;;;;;;;;5033895;28;20502;-57
2021/07/22 03:21:33;;;;;;;16.10;13.13;;;;;;;;;;5034208;28;20445;-58
2021/07/22 03:24:01;;;;;;;18.67;13.70;;;;;;;;;;5034356;28;20494;-58
2021/07/22 03:26:28;;;;;;;16.07;13.60;;;;;;;;;;5033575;28;20465;-57
2021/07/22 03:28:55;;;;;;;17.73;14.50;;;;;;;;;;5033541;28;20503;-57
2021/07/22 03:31:23;;;;;;;17.50;13.17;;;;;;;;;;5033791;28;20437;-56
2021/07/22 03:33:50;;;;;;;15.77;14.07;;;;;;;;;;5033777;28;20473;-56
2021/07/22 03:36:17;;;;;;;16.83;13.57;;;;;;;;;;5033611;28;20531;-56
2021/07/22 03:38:46;;;;;;;15.80;13.80;;;;;;;;;;5033752;28;20864;-56
2021/07/22 03:41:16;;;;;;;15.17;13.43;;;;;;;;;;5033501;28;20870;-56
2021/07/22 03:43:43;;;;;;;16.97;14.23;;;;;;;;;;5033779;28;20438;-58
2021/07/22 03:46:11;;;;;;;17.77;13.63;;;;;;;;;;5033489;28;20891;-57
2021/07/22 03:48:38;;;;;;;17.30;14.37;;;;;;;;;;5033625;28;20522;-56
2021/07/22 03:51:05;;;;;;;19.93;14.53;;;;;;;;;;5033777;28;20457;-57
2021/07/22 03:53:32;;;;;;;17.90;14.40;;;;;;;;;;5033714;28;20441;-56
2021/07/22 03:56:02;;;;;;;16.07;13.17;;;;;;;;;;5033544;28;20861;-56
2021/07/22 03:58:30;;;;;;;18.17;16.20;;;;;;;;;;5033142;28;20445;-57
2021/07/22 04:00:58;;;;;;;14.70;13.10;;;;;;;;;;5033461;28;20854;-56
2021/07/22 04:03:25;;;;;;;18.13;14.90;;;;;;;;;;5032857;28;20449;-57
2021/07/22 04:08:21;;;;;;;16.47;13.60;;;;;;;;;;5091369;28;20592;-56
2021/07/22 04:10:49;;;;;;;15.73;13.33;;;;;;;;;;5090598;28;20438;-56
2021/07/22 04:13:16;;;;;;;17.87;13.73;;;;;;;;;;5090713;28;20447;-57
2021/07/22 04:15:43;;;;;;;17.40;13.10;;;;;;;;;;5090378;28;20443;-57
2021/07/22 04:18:10;;;;;;;16.20;12.60;;;;;;;;;;5090797;28;20492;-57
2021/07/22 04:20:38;;;;;;;14.30;12.40;;;;;;;;;;5090648;28;20439;-57
2021/07/22 04:23:05;;;;;;;18.23;14.13;;;;;;;;;;5090615;28;20450;-56
2021/07/22 04:25:33;;;;;;;15.40;13.00;;;;;;;;;;5090316;28;20492;-56
2021/07/22 04:28:01;;;;;;;17.00;13.40;;;;;;;;;;5089875;28;20478;-55
2021/07/22 04:30:28;;;;;;;14.83;13.07;;;;;;;;;;5090311;28;20507;-56
2021/07/22 04:32:58;;;;;;;14.43;12.93;;;;;;;;;;5090033;28;20500;-58
2021/07/22 04:35:25;;;;;;;15.90;12.27;;;;;;;;;;5090453;28;20442;-55
2021/07/22 04:37:52;;;;;;;14.80;13.30;;;;;;;;;;5089922;28;20524;-57
2021/07/22 04:40:19;;;;;;;17.40;13.33;;;;;;;;;;5090281;28;20434;-56
2021/07/22 04:42:48;;;;;;;15.63;13.00;;;;;;;;;;5089977;28;20450;-57
2021/07/22 04:45:15;;;;;;;15.70;13.33;;;;;;;;;;5090106;28;20439;-58
2021/07/22 04:47:42;;;;;;;15.67;13.37;;;;;;;;;;5090091;28;20482;-56
2021/07/22 04:50:10;;;;;;;13.70;11.80;;;;;;;;;;5089726;28;20462;-57
2021/07/22 04:52:37;;;;;;;16.63;12.83;;;;;;;;;;5089741;28;21068;-56
2021/07/22 04:55:05;;;;;;;13.93;12.33;;;;;;;;;;5090146;28;20442;-57
2021/07/22 04:57:32;;;;;;;13.07;11.67;;;;;;;;;;5089832;28;20516;-57
2021/07/22 05:00:00;;;;;;;15.77;13.13;;;;;;;;;;5089438;28;20876;-58
2021/07/22 05:02:28;;;;;;;13.33;11.30;;;;;;;;;;5089783;28;20504;-58
2021/07/22 05:04:55;;;;;;;13.43;12.00;;;;;;;;;;5089890;28;20447;-58
2021/07/22 05:07:22;;;;;;;13.97;11.20;;;;;;;;;;5089312;28;20496;-58
2021/07/22 05:09:49;;;;;;;13.60;11.80;;;;;;;;;;5089598;28;20444;-58
2021/07/22 05:12:16;;;;;;;14.63;11.50;;;;;;;;;;5089364;28;20929;-58
2021/07/22 05:14:44;;;;;;;16.10;12.77;;;;;;;;;;5089513;28;20444;-58
2021/07/22 05:17:12;;;;;;;13.40;10.50;;;;;;;;;;5089645;28;20540;-58
2021/07/22 05:19:40;;;;;;;15.00;11.40;;;;;;;;;;5075930;28;20450;-58
2021/07/22 05:22:07;;;;;;;11.57;10.37;;;;;;;;;;5075629;28;20503;-57
2021/07/22 05:24:34;;;;;;;15.53;11.17;;;;;;;;;;5076412;28;20443;-58
2021/07/22 05:27:01;;;;;;;11.90;10.53;;;;;;;;;;5075765;28;21055;-58
2021/07/22 05:29:28;;;;;;;15.33;11.23;;;;;;;;;;5075840;28;20443;-58
2021/07/22 05:31:56;;;;;;;13.13;10.00;;;;;;;;;;5075469;28;20792;-58
2021/07/22 05:34:24;;;;;;;12.33;10.40;;;;;;;;;;5075755;28;20441;-59
2021/07/22 05:36:52;;;;;;;11.07;9.97;;;;;;;;;;5075757;28;20513;-58
2021/07/22 05:39:19;;;;;;;13.23;11.07;;;;;;;;;;5075750;28;20448;-58
2021/07/22 05:41:46;;;;;;;12.17;10.73;;;;;;;;;;5075790;28;20497;-58
2021/07/22 05:44:13;;;;;;;13.70;10.93;;;;;;;;;;5075667;28;20445;-58
2021/07/22 05:46:41;;;;;;;14.17;10.20;;;;;;;;;;5075743;28;20516;-58
2021/07/22 05:49:08;;;;;;;12.20;10.90;;;;;;;;;;5075484;28;20445;-57
2021/07/22 05:51:37;;;;;;;12.83;11.50;;;;;;;;;;5075988;28;20512;-58
2021/07/22 05:54:04;;;;;;;12.17;10.93;;;;;;;;;;5075626;28;20455;-58
2021/07/22 05:56:31;;;;;;;11.93;10.73;;;;;;;;;;5075864;28;20602;-58
2021/07/22 05:58:58;;;;;;;11.90;10.50;;;;;;;;;;5075683;28;20447;-56
2021/07/22 06:01:25;;;;;;;13.17;11.30;;;;;;;;;;5075510;28;20443;-58
2021/07/22 06:03:53;;;;;;;14.40;10.67;;;;;;;;;;5075440;28;21003;-58
2021/07/22 06:06:20;;;;;;;11.50;10.30;;;;;;;;;;5075530;28;20481;-57
2021/07/22 06:08:49;;;;;;;11.33;10.13;;;;;;;;;;5075724;28;20466;-57
2021/07/22 06:11:17;;;;;;;12.83;10.60;;;;;;;;;;5074948;28;20447;-57
2021/07/22 06:13:44;;;;;;;14.43;10.33;;;;;;;;;;5074995;28;20449;-57
2021/07/22 06:16:12;;;;;;;13.63;10.90;;;;;;;;;;5074873;28;20538;-58
2021/07/22 06:18:39;;;;;;;15.37;11.90;;;;;;;;;;5074778;28;20450;-58
2021/07/22 06:21:06;;;;;;;13.80;10.60;;;;;;;;;;5074228;28;20927;-57
2021/07/22 06:23:34;;;;;;;13.30;10.40;;;;;;;;;;5074484;28;20902;-58
2021/07/22 06:26:03;;;;;;;11.43;10.00;;;;;;;;;;5074511;28;21053;-58
2021/07/22 06:28:30;;;;;;;12.60;10.07;;;;;;;;;;5074602;28;20991;-58
2021/07/22 06:30:57;;;;;;;13.67;11.77;;;;;;;;;;5073532;28;20496;-58
2021/07/22 06:33:25;;;;;;;11.53;10.43;;;;;;;;;;5074812;28;20496;-58
2021/07/22 06:35:52;;;;;;;11.93;10.63;;;;;;;;;;5074284;28;20454;-57
2021/07/22 06:38:19;;;;;;;12.90;10.90;;;;;;;;;;5074252;28;20516;-57
2021/07/22 06:40:46;;;;;;;12.87;10.73;;;;;;;;;;5074232;28;20502;-59
2021/07/22 06:43:15;;;;;;;14.10;10.93;;;;;;;;;;5073986;28;20502;-57
2021/07/22 06:45:43;;;;;;;12.50;11.10;;;;;;;;;;5074296;28;20499;-59
2021/07/22 06:48:10;;;;;;;13.63;11.30;;;;;;;;;;5074005;28;20549;-58
2021/07/22 06:50:37;;;;;;;11.13;9.60;;;;;;;;;;5073856;28;20479;-57
2021/07/22 06:53:05;;;;;;;11.47;10.37;;;;;;;;;;5073864;28;20526;-56
2021/07/22 06:55:32;;;;;;;13.47;10.20;;;;;;;;;;5073790;28;20521;-58
2021/07/22 06:58:04;;;;;;;11.33;9.83;;;;;;;;;;5073813;28;20524;-57
2021/07/22 07:00:33;;;;;;;13.03;11.43;;;;;;;;;;5074084;28;20514;-58
2021/07/22 07:03:03;;;;;;;13.20;10.60;;;;;;;;;;5074378;28;20484;-58
2021/07/22 07:05:30;;;;;;;16.80;11.67;;;;;;;;;;5073627;28;20815;-58
2021/07/22 07:07:57;;;;;;;11.83;10.73;;;;;;;;;;5073470;28;20490;-58
2021/07/22 07:10:24;;;;;;;14.23;11.10;;;;;;;;;;5073752;28;20866;-57
2021/07/22 07:12:52;;;;;;;11.77;10.57;;;;;;;;;;5073974;28;20450;-57
2021/07/22 07:15:19;;;;;;;12.63;11.23;;;;;;;;;;5073676;28;20450;-57
2021/07/22 07:17:48;;;;;;;12.77;11.47;;;;;;;;;;5073790;28;20471;-57
2021/07/22 07:20:16;;;;;;;13.77;11.90;;;;;;;;;;5074004;28;20938;-57
2021/07/22 07:22:43;;;;;;;12.67;11.30;;;;;;;;;;5073946;28;20476;-58
2021/07/22 07:25:11;;;;;;;12.70;11.40;;;;;;;;;;5073644;28;20475;-57
2021/07/22 07:27:39;;;;;;;12.40;11.10;;;;;;;;;;5074126;28;20486;-58
2021/07/22 07:30:07;;;;;;;13.03;11.30;;;;;;;;;;5074934;28;20453;-57
2021/07/22 07:32:34;;;;;;;12.37;9.77;;;;;;;;;;5075598;28;20853;-58
2021/07/22 07:35:03;;;;;;;13.43;11.83;;;;;;;;;;5077248;28;20529;-57
2021/07/22 07:37:31;;;;;;;12.13;10.93;;;;;;;;;;5074518;22;20569;-60
2021/07/22 07:39:58;;;;;;;14.23;11.00;;;;;;;;;;5033251;28;20556;-61
2021/07/22 07:42:25;;;;;;;12.47;11.17;;;;;;;;;;5032989;28;20923;-60
2021/07/22 07:44:53;;;;;;;11.73;10.53;;;;;;;;;;5033306;28;20437;-61
2021/07/22 07:47:20;;;;;;;13.50;10.97;;;;;;;;;;5032750;28;21015;-59
2021/07/22 07:49:47;;;;;;;11.77;10.57;;;;;;;;;;5033340;28;20453;-61
2021/07/22 07:52:16;;;;;;;12.30;10.77;;;;;;;;;;5033235;28;20450;-61
2021/07/22 07:54:43;;;;;;;14.20;11.27;;;;;;;;;;5033520;28;20479;-61
2021/07/22 07:57:11;;;;;;;13.90;11.53;;;;;;;;;;5033851;28;20465;-60
2021/07/22 07:59:38;;;;;;;12.23;10.20;;;;;;;;;;5033340;28;20456;-60
2021/07/22 08:02:05;;;;;;;11.83;10.60;;;;;;;;;;5034057;28;20441;-61
2021/07/22 08:04:33;;;;;;;12.30;11.00;;;;;;;;;;5033900;28;20450;-60
2021/07/22 08:07:00;;;;;;;12.97;11.57;;;;;;;;;;5033581;28;20900;-60
2021/07/22 08:09:28;;;;;;;12.87;10.90;;;;;;;;;;5033762;28;20483;-60
2021/07/22 08:11:56;;;;;;;12.03;10.83;;;;;;;;;;5033803;28;20437;-60
2021/07/22 08:14:23;;;;;;;12.33;11.13;;;;;;;;;;5033340;28;20947;-58
2021/07/22 08:16:50;;;;;;;11.70;10.50;;;;;;;;;;5033360;28;20469;-60
2021/07/22 08:19:18;;;;;;;11.80;10.50;;;;;;;;;;5033355;28;20543;-61
2021/07/22 08:21:45;;;;;;;14.43;10.90;;;;;;;;;;5033202;28;20445;-58
2021/07/22 08:24:12;;;;;;;12.47;10.13;;;;;;;;;;5033192;28;20456;-60
2021/07/22 08:26:41;;;;;;;11.80;10.60;;;;;;;;;;5032829;28;20469;-60
2021/07/22 08:29:08;;;;;;;14.10;10.97;;;;;;;;;;5033488;28;21054;-60
2021/07/22 08:31:35;;;;;;;13.57;10.47;;;;;;;;;;5032649;28;20473;-61
2021/07/22 08:34:03;;;;;;;12.10;10.90;;;;;;;;;;5032636;28;20506;-60
2021/07/22 08:36:30;;;;;;;10.07;9.07;;;;;;;;;;5032572;28;20487;-60
2021/07/22 08:38:57;;;;;;;13.10;11.40;;;;;;;;;;5032585;28;20441;-61
2021/07/22 08:41:24;;;;;;;12.93;10.03;;;;;;;;;;5033059;28;20447;-61
2021/07/22 08:43:53;;;;;;;13.30;11.10;;;;;;;;;;5032691;28;20568;-60
2021/07/22 08:46:20;;;;;;;15.83;11.30;;;;;;;;;;5032460;28;20451;-61
2021/07/22 08:48:48;;;;;;;12.93;11.57;;;;;;;;;;5032425;28;20533;-61
2021/07/22 08:51:15;;;;;;;11.63;9.83;;;;;;;;;;5032774;28;20454;-61
2021/07/22 08:53:42;;;;;;;10.50;9.37;;;;;;;;;;5034261;28;20439;-61
2021/07/22 08:56:10;;;;;;;10.63;9.53;;;;;;;;;;5036626;28;20513;-59
2021/07/22 08:58:39;;;;;;;11.03;9.83;;;;;;;;;;5041960;28;20454;-59
2021/07/22 09:01:09;;;;;;;15.10;11.63;;;;;;;;;;5039639;28;20456;-59
2021/07/22 09:03:36;;;;;;;12.33;9.10;;;;;;;;;;5039119;28;20893;-60
2021/07/22 09:06:13;;;;;;;10.80;9.30;;;;;;;;;;5038501;28;20445;-61
2021/07/22 09:08:40;;;;;;;12.63;9.47;;;;;;;;;;5037051;28;20516;-60
2021/07/22 09:11:07;;;;;;;11.30;9.50;;;;;;;;;;5036408;28;20953;-60
2021/07/22 09:13:35;;;;;;;10.50;9.37;;;;;;;;;;5036251;28;20455;-60
2021/07/22 09:16:03;;;;;;;12.30;8.60;;;;;;;;;;5036982;28;20913;-62
2021/07/22 09:18:35;;;;;;;15.17;9.40;;;;;;;;;;5036396;28;20453;-59
2021/07/22 09:21:18;;;;;;;12.93;9.90;;;;;;;;;;5036720;28;20454;-61
2021/07/22 09:24:02;;;;;;;11.70;8.60;;;;;;;;;;5036205;28;20462;-60
2021/07/22 09:26:31;;;;;;;9.90;8.90;;;;;;;;;;5035985;28;20468;-60
2021/07/22 09:29:03;;;;;;;9.10;7.97;;;;;;;;;;5035916;28;20559;-60
2021/07/22 09:31:31;;;;;;;10.87;8.63;;;;;;;;;;5035285;28;20525;-61
2021/07/22 09:34:00;;;;;;;11.83;8.33;;;;;;;;;;5035471;28;20452;-60
2021/07/22 09:36:33;;;;;;;10.47;8.00;;;;;;;;;;5036183;28;20486;-58
2021/07/22 09:39:15;;;;;;;14.77;8.57;;;;;;;;;;5035321;28;20429;-62
2021/07/22 09:41:44;;;;;;;10.87;9.77;;;;;;;;;;5035177;28;20501;-61
2021/07/22 09:44:26;;;;;;;8.63;7.73;;;;;;;;;;5035291;28;20938;-61
2021/07/22 09:46:53;;;;;;;10.70;8.33;;;;;;;;;;5035622;28;20533;-61
2021/07/22 09:49:26;;;;;;;10.03;7.70;;;;;;;;;;5035683;28;20483;-60
2021/07/22 09:51:55;;;;;;;10.27;9.27;;;;;;;;;;5035835;28;20440;-61
2021/07/22 09:54:33;;;;;;;8.73;7.83;;;;;;;;;;5035405;28;20450;-59
2021/07/22 09:57:01;;;;;;;10.93;9.83;;;;;;;;;;5035058;28;20506;-61
2021/07/22 09:59:29;;;;;;;9.83;8.30;;;;;;;;;;5035133;28;20516;-61
2021/07/22 10:01:59;;;;;;;10.43;8.60;;;;;;;;;;5035225;28;20471;-61
2021/07/22 10:04:29;;;;;;;11.50;10.07;;;;;;;;;;5035123;28;20549;-61
2021/07/22 10:06:56;;;;;;;11.17;9.50;;;;;;;;;;5035142;28;20483;-60
2021/07/22 10:09:25;;;;;;;10.97;8.47;;;;;;;;;;5034848;28;20483;-59
2021/07/22 10:11:53;;;;;;;11.73;8.43;;;;;;;;;;5034976;28;20448;-59
2021/07/22 10:14:22;;;;;;;11.77;8.87;;;;;;;;;;5034548;28;20460;-61
2021/07/22 10:16:50;;;;;;;10.63;9.13;;;;;;;;;;5034753;28;20469;-59
2021/07/22 10:19:17;;;;;;;10.50;9.40;;;;;;;;;;5034828;28;20820;-61
2021/07/22 10:21:46;;;;;;;12.07;10.07;;;;;;;;;;5034824;28;20482;-60
2021/07/22 10:24:13;;;;;;;10.70;9.27;;;;;;;;;;5034989;28;20449;-60
2021/07/22 10:26:41;;;;;;;10.30;9.10;;;;;;;;;;5034539;28;20830;-60
2021/07/22 10:29:08;;;;;;;12.80;10.80;;;;;;;;;;5034232;28;20474;-61
2021/07/22 10:31:40;;;;;;;10.17;8.90;;;;;;;;;;5034484;28;20516;-61
2021/07/22 10:34:08;;;;;;;11.33;9.90;;;;;;;;;;5034500;28;20431;-61
2021/07/22 10:36:36;;;;;;;12.40;9.90;;;;;;;;;;5034244;28;20510;-61
2021/07/22 10:39:04;;;;;;;12.37;10.97;;;;;;;;;;5034418;28;20480;-61
2021/07/22 10:41:36;;;;;;;11.67;9.80;;;;;;;;;;5034488;28;20940;-61
2021/07/22 10:44:04;;;;;;;16.03;9.93;;;;;;;;;;5034406;28;20466;-61
2021/07/22 10:47:02;;;;;;;11.20;9.90;;;;;;;;;;5035329;28;20522;-64
2021/07/22 10:49:39;;;;;;;10.47;8.83;;;;;;;;;;4973302;28;20470;-59
2021/07/22 10:52:07;;;;;;;12.40;9.97;;;;;;;;;;5024668;28;20456;-58
2021/07/22 10:54:51;;;;;;;12.30;10.60;;;;;;;;;;5033916;28;20445;-59
2021/07/22 10:57:38;;;;;;;11.00;9.13;;;;;;;;;;5034708;28;20495;-60
2021/07/22 11:00:07;;;;;;;12.67;10.97;;;;;;;;;;5033931;28;20505;-62
2021/07/22 11:02:44;;;;;;;14.20;10.97;;;;;;;;;;5034277;28;20458;-60
2021/07/22 11:05:12;;;;;;;14.10;12.37;;;;;;;;;;5033958;28;20542;-61
2021/07/22 11:07:39;;;;;;;16.30;12.80;;;;;;;;;;5034649;28;20474;-61
2021/07/22 11:10:09;;;;;;;16.70;13.70;;;;;;;;;;5033717;28;20557;-60
2021/07/22 11:12:46;;;;;;;14.60;12.93;;;;;;;;;;5033867;28;20836;-61
2021/07/22 11:15:18;;;;;;;15.30;13.67;;;;;;;;;;5033623;28;20480;-60
2021/07/22 11:17:47;;;;;;;19.53;13.40;;;;;;;;;;5032823;28;20525;-61
2021/07/22 11:20:44;;;;;;;16.83;13.40;;;;;;;;;;5033168;28;20503;-61
2021/07/22 11:23:16;;;;;;;14.50;12.77;;;;;;;;;;5033426;28;20435;-61
2021/07/22 11:25:50;;;;;;;17.47;15.67;;;;;;;;;;5033085;28;20540;-61
2021/07/22 11:28:24;;;;;;;17.07;15.23;;;;;;;;;;5033101;28;20981;-61
2021/07/22 11:31:01;;;;;;;18.17;15.57;;;;;;;;;;5033566;28;20518;-61
2021/07/22 11:33:30;;;;;;;18.00;16.20;;;;;;;;;;5033259;28;20932;-61
2021/07/22 11:35:58;;;;;;;18.57;15.60;;;;;;;;;;5033455;28;20479;-60
2021/07/22 11:38:26;;;;;;;19.70;17.60;;;;;;;;;;5033049;28;20477;-61
2021/07/22 11:40:55;;;;;;;18.67;16.70;;;;;;;;;;5033154;28;20430;-60
2021/07/22 11:43:42;;;;;;;18.63;15.83;;;;;;;;;;5033243;28;20480;-60
2021/07/22 11:46:10;;;;;;;19.30;15.57;;;;;;;;;;5032333;28;20437;-60
2021/07/22 11:48:38;;;;;;;16.30;13.90;;;;;;;;;;5032598;28;21010;-61
2021/07/22 11:51:06;;;;;;;17.00;13.20;;;;;;;;;;5033015;28;20505;-61
2021/07/22 11:53:34;;;;;;;18.13;13.70;;;;;;;;;;5032586;28;20448;-61
2021/07/22 11:56:10;;;;;;;17.20;13.60;;;;;;;;;;5032803;28;20483;-61
2021/07/22 11:58:38;;;;;;;16.03;13.90;;;;;;;;;;5032644;28;20434;-60
2021/07/22 12:01:06;;;;;;;15.53;12.97;;;;;;;;;;5032887;28;20446;-59
2021/07/22 12:03:33;;;;;;;16.03;13.83;;;;;;;;;;5032766;28;20449;-61
2021/07/22 12:06:00;;;;;;;15.43;13.83;;;;;;;;;;5032677;28;20455;-60
2021/07/22 12:08:28;;;;;;;14.87;13.30;;;;;;;;;;5033168;28;20508;-61
2021/07/22 12:10:59;;;;;;;14.50;12.53;;;;;;;;;;5032755;28;20934;-61
2021/07/22 12:13:28;;;;;;;14.37;12.80;;;;;;;;;;5033544;28;20679;-62
2021/07/22 12:15:56;;;;;;;17.30;13.80;;;;;;;;;;5032804;28;20450;-62
2021/07/22 12:18:24;;;;;;;13.80;11.57;;;;;;;;;;5032957;28;20529;-61
2021/07/22 12:20:52;;;;;;;13.77;12.37;;;;;;;;;;5032462;28;20442;-62
2021/07/22 12:23:29;;;;;;;14.90;13.30;;;;;;;;;;5032602;28;20483;-61
2021/07/22 12:25:57;;;;;;;14.30;12.80;;;;;;;;;;5032868;28;20541;-62
2021/07/22 12:28:24;;;;;;;12.07;10.80;;;;;;;;;;5033784;28;20593;-62
2021/07/22 12:30:53;;;;;;;12.47;11.00;;;;;;;;;;5036943;28;20903;-63
2021/07/22 12:33:23;;;;;;;13.40;11.67;;;;;;;;;;5036892;28;20512;-61
2021/07/22 12:35:50;;;;;;;12.73;11.17;;;;;;;;;;5036547;28;20968;-61
2021/07/22 12:38:24;;;;;;;13.10;11.00;;;;;;;;;;5036485;28;20574;-60
2021/07/22 12:41:04;;;;;;;11.87;10.60;;;;;;;;;;5037095;28;20427;-60
2021/07/22 12:43:45;;;;;;;12.10;10.87;;;;;;;;;;5036680;28;20527;-60
2021/07/22 12:46:17;;;;;;;11.40;10.33;;;;;;;;;;5037055;28;20465;-61
2021/07/22 12:48:44;;;;;;;12.10;10.77;;;;;;;;;;5037234;28;20433;-60
2021/07/22 12:51:12;;;;;;;13.33;10.83;;;;;;;;;;5038472;28;20471;-61
2021/07/22 12:53:40;;;;;;;13.70;11.30;;;;;;;;;;5036689;28;20535;-62
2021/07/22 12:56:08;;;;;;;12.50;11.30;;;;;;;;;;5041040;28;20444;-65
2021/07/22 12:58:37;;;;;;;14.20;11.70;;;;;;;;;;5042422;28;20536;-61
2021/07/22 13:01:06;;;;;;;12.40;11.03;;;;;;;;;;5044535;28;20450;-71
2021/07/22 13:03:35;;;;;;;12.13;10.80;;;;;;;;;;5040012;28;20498;-61
2021/07/22 13:06:02;;;;;;;14.33;10.70;;;;;;;;;;5037279;28;20506;-61
2021/07/22 13:08:30;;;;;;;13.93;10.90;;;;;;;;;;5038679;28;20450;-60
2021/07/22 13:10:57;;;;;;;14.33;11.50;;;;;;;;;;5036876;28;20508;-60
2021/07/22 13:13:25;;;;;;;13.83;10.83;;;;;;;;;;5036789;28;20514;-60
2021/07/22 13:15:52;;;;;;;13.30;10.90;;;;;;;;;;5036250;28;20449;-60
2021/07/22 13:18:20;;;;;;;14.10;12.37;;;;;;;;;;5036233;28;20599;-61
2021/07/22 13:20:48;;;;;;;13.93;11.33;;;;;;;;;;5035720;28;20492;-60
2021/07/22 13:23:16;;;;;;;12.27;10.97;;;;;;;;;;5035795;28;20447;-61
2021/07/22 13:25:43;;;;;;;16.13;11.77;;;;;;;;;;5035922;28;20441;-62
2021/07/22 13:28:10;;;;;;;13.43;12.03;;;;;;;;;;5035438;28;20466;-60
2021/07/22 13:30:37;;;;;;;14.03;12.10;;;;;;;;;;5035781;28;20504;-60
2021/07/22 13:33:05;;;;;;;13.43;10.70;;;;;;;;;;5035725;28;20451;-60
2021/07/22 13:35:35;;;;;;;11.67;10.47;;;;;;;;;;5035766;28;20527;-61
2021/07/22 13:38:05;;;;;;;13.77;11.20;;;;;;;;;;5036499;28;20496;-60
2021/07/22 13:40:32;;;;;;;13.50;11.27;;;;;;;;;;5034952;28;20447;-62
2021/07/22 13:43:01;;;;;;;12.73;10.50;;;;;;;;;;5035506;28;20445;-61
2021/07/22 13:45:29;;;;;;;12.80;11.10;;;;;;;;;;5035737;28;20486;-62
2021/07/22 13:47:56;;;;;;;10.80;9.70;;;;;;;;;;5036124;28;20516;-63
2021/07/22 13:50:23;;;;;;;12.63;11.30;;;;;;;;;;5035177;28;20482;-60
2021/07/22 13:52:51;;;;;;;12.43;11.07;;;;;;;;;;5035381;28;20451;-64
2021/07/22 13:55:19;;;;;;;11.97;10.37;;;;;;;;;;5035137;28;20441;-61
2021/07/22 13:57:47;;;;;;;17.93;11.90;;;;;;;;;;5035442;28;20880;-60
2021/07/22 14:00:14;;;;;;;14.50;10.17;;;;;;;;;;5035095;28;20539;-63
2021/07/22 14:02:41;;;;;;;14.63;10.70;;;;;;;;;;5035120;28;20574;-61
2021/07/22 14:05:09;;;;;;;11.40;9.67;;;;;;;;;;5034685;28;20454;-63
2021/07/22 14:07:36;;;;;;;11.07;9.97;;;;;;;;;;5034934;28;20479;-60
2021/07/22 14:10:04;;;;;;;11.07;9.90;;;;;;;;;;5034674;28;20484;-62
2021/07/22 14:12:32;;;;;;;10.97;9.87;;;;;;;;;;5035588;28;20452;-61
2021/07/22 14:15:01;;;;;;;13.10;9.07;;;;;;;;;;5035007;28;20444;-60
2021/07/22 14:17:28;;;;;;;9.17;8.27;;;;;;;;;;5035100;28;20922;-60
2021/07/22 14:19:56;;;;;;;10.20;9.20;;;;;;;;;;5035989;28;20505;-61
2021/07/22 14:22:23;;;;;;;10.50;9.03;;;;;;;;;;5034862;28;20503;-61
2021/07/22 14:24:50;;;;;;;10.77;9.63;;;;;;;;;;5035165;28;20459;-60
2021/07/22 14:27:17;;;;;;;11.40;10.33;;;;;;;;;;5034901;28;20468;-61
2021/07/22 14:29:46;;;;;;;10.70;9.63;;;;;;;;;;5034781;28;20481;-61
2021/07/22 14:32:13;;;;;;;11.20;10.07;;;;;;;;;;5034983;28;20503;-61
2021/07/22 14:34:41;;;;;;;10.87;9.50;;;;;;;;;;5035676;28;20510;-61